Time;durP1;ratioP1;P1;durP2;ratioP2;P2;SDS_P1;SDS_P2;PMS_P1;PMS_P2;Temp;Humidity;BMP_temperature;BMP_pressure;BME280_temperature;BME280_humidity;BME280_pressure;Samples;Min_cycle;Max_cycle;Signal;HPM_P1;HPM_P2
2023/04/02 00:01:04;;;;;;;;;;;4.40;99.90;;;;;;6165179;23;19999;-86
2023/04/02 00:03:41;;;;;;;;;;;4.60;99.90;;;;;;6190034;23;19920;-86
2023/04/02 00:06:29;;;;;;;;;;;4.20;99.90;;;;;;6191027;23;19927;-85
2023/04/02 00:08:57;;;;;;;;;;;5.30;99.90;;;;;;6165025;23;20037;-86
2023/04/02 00:11:39;;;;;;;;;;;4.00;99.90;;;;;;6189893;23;19919;-86
2023/04/02 00:14:11;;;;;;;;;;;4.00;99.90;;;;;;6189244;23;19942;-86
2023/04/02 00:16:36;;;;;;;;;;;3.80;99.90;;;;;;6165951;23;19998;-85
2023/04/02 00:19:05;;;;;;;;;;;3.70;99.90;;;;;;6189610;23;19943;-86
2023/04/02 00:21:31;;;;;;;;;;;3.70;99.90;;;;;;6189647;23;19956;-86
2023/04/02 00:24:01;;;;;;;;;;;3.60;99.90;;;;;;6165125;23;19962;-85
2023/04/02 00:26:35;;;;;;;;;;;3.50;99.90;;;;;;6165224;23;19919;-86
2023/04/02 00:29:02;;;;;;;;;;;4.80;99.90;;;;;;6165752;23;19924;-86
2023/04/02 00:31:29;;;;;;;;;;;3.60;99.90;;;;;;6190509;23;19924;-86
2023/04/02 00:34:03;;;;;;;;;;;3.50;99.90;;;;;;6164352;23;21593;-86
2023/04/02 00:36:30;;;;;;;;;;;3.30;99.90;;;;;;6189779;23;20389;-86
2023/04/02 00:38:57;;;;;;;;;;;5.60;99.90;;;;;;6164648;23;19920;-87
2023/04/02 00:41:29;;;;;;;;;;;3.60;99.90;;;;;;6165391;23;19932;-86
2023/04/02 00:43:56;;;;;;;;;;;4.70;99.90;;;;;;6166263;23;19999;-86
2023/04/02 00:46:26;;;;;;;;;;;3.10;99.90;;;;;;6189580;23;20330;-86
2023/04/02 00:48:55;;;;;;;;;;;3.10;99.90;;;;;;6189820;23;19920;-87
2023/04/02 00:51:31;;;;;;;;;;;3.40;99.90;;;;;;6190512;23;19946;-86
2023/04/02 00:53:59;;;;;;;;;;;3.20;99.90;;;;;;6164792;23;20247;-84
2023/04/02 00:56:31;;;;;;;;;;;3.40;99.90;;;;;;6189458;23;19927;-85
2023/04/02 00:58:57;;;;;;;;;;;2.50;99.90;;;;;;6189352;23;19920;-86
2023/04/02 01:01:24;;;;;;;;;;;3.90;99.90;;;;;;6164771;23;19958;-86
2023/04/02 01:03:56;;;;;;;;;;;2.80;99.90;;;;;;6165426;23;19920;-85
2023/04/02 01:06:24;;;;;;;;;;;2.90;99.90;;;;;;6214512;23;19971;-87
2023/04/02 01:08:50;;;;;;;;;;;1.00;99.90;;;;;;6189468;23;19974;-87
2023/04/02 01:11:31;;;;;;;;;;;3.10;99.90;;;;;;6189307;23;19956;-86
2023/04/02 01:14:23;;;;;;;;;;;2.90;99.90;;;;;;6189356;23;19923;-86
2023/04/02 01:16:49;;;;;;;;;;;2.70;99.90;;;;;;6130525;23;19920;-86
2023/04/02 01:19:44;;;;;;;;;;;3.10;99.90;;;;;;6189557;23;19975;-87
2023/04/02 01:22:29;;;;;;;;;;;2.70;99.90;;;;;;6085225;23;20259;-87
2023/04/02 01:24:57;;;;;;;;;;;1.10;99.90;;;;;;6189626;23;19983;-86
2023/04/02 01:27:25;;;;;;;;;;;3.80;99.90;;;;;;6164478;23;19990;-85
2023/04/02 01:29:55;;;;;;;;;;;2.60;99.90;;;;;;6165359;23;20284;-86
2023/04/02 01:32:22;;;;;;;;;;;4.20;99.90;;;;;;6189324;23;19925;-85
2023/04/02 01:34:49;;;;;;;;;;;3.10;99.90;;;;;;6164199;23;20071;-85
2023/04/02 01:37:35;;;;;;;;;;;0.20;99.90;;;;;;6164463;23;19919;-87
2023/04/02 01:40:22;;;;;;;;;;;3.90;99.90;;;;;;6147902;23;19923;-86
2023/04/02 01:43:00;;;;;;;;;;;2.20;99.90;;;;;;6163940;23;19990;-84
2023/04/02 01:45:34;;;;;;;;;;;2.30;99.90;;;;;;6189706;23;20238;-86
2023/04/02 01:48:04;;;;;;;;;;;4.40;99.90;;;;;;6189398;23;19955;-86
2023/04/02 01:50:35;;;;;;;;;;;2.30;99.90;;;;;;6188381;23;20342;-86
2023/04/02 01:53:02;;;;;;;;;;;2.20;99.90;;;;;;6164399;23;19924;-85
2023/04/02 01:55:39;;;;;;;;;;;2.20;99.90;;;;;;6165015;23;19962;-86
2023/04/02 01:58:05;;;;;;;;;;;2.10;99.90;;;;;;6164586;23;20318;-85
2023/04/02 02:00:31;;;;;;;;;;;4.10;99.90;;;;;;6164464;23;20021;-85
2023/04/02 02:03:01;;;;;;;;;;;3.60;99.90;;;;;;6188538;23;20239;-87
2023/04/02 02:05:27;;;;;;;;;;;4.10;99.90;;;;;;6190316;23;19920;-87
2023/04/02 02:07:53;;;;;;;;;;;2.40;99.90;;;;;;6166082;23;19919;-86
2023/04/02 02:10:24;;;;;;;;;;;2.20;99.90;;;;;;6191672;23;19928;-87
2023/04/02 02:12:50;;;;;;;;;;;1.90;99.90;;;;;;6190915;23;19924;-86
2023/04/02 02:15:17;;;;;;;;;;;2.50;99.90;;;;;;6190870;23;19920;-85
2023/04/02 02:17:46;;;;;;;;;;;3.70;99.90;;;;;;6190723;23;19920;-85
2023/04/02 02:20:13;;;;;;;;;;;2.60;99.90;;;;;;6191015;23;19920;-85
2023/04/02 02:22:48;;;;;;;;;;;3.80;99.90;;;;;;6190613;23;19931;-86
2023/04/02 02:25:16;;;;;;;;;;;1.90;99.90;;;;;;6165825;23;19920;-85
2023/04/02 02:27:48;;;;;;;;;;;2.00;99.90;;;;;;6190522;23;20187;-85
2023/04/02 02:30:14;;;;;;;;;;;-0.40;99.90;;;;;;6190790;23;19967;-87
2023/04/02 02:32:44;;;;;;;;;;;1.90;99.90;;;;;;6190944;23;19924;-86
2023/04/02 02:35:12;;;;;;;;;;;4.40;99.90;;;;;;6165807;23;19990;-86
2023/04/02 02:37:42;;;;;;;;;;;4.20;99.90;;;;;;6190634;23;19939;-86
2023/04/02 02:40:29;;;;;;;;;;;1.80;99.90;;;;;;6166090;23;20019;-86
2023/04/02 02:42:59;;;;;;;;;;;1.70;99.90;;;;;;6191486;23;19926;-87
2023/04/02 02:45:26;;;;;;;;;;;3.10;99.90;;;;;;6190598;23;19947;-85
2023/04/02 02:47:53;;;;;;;;;;;3.80;99.90;;;;;;6165747;23;19920;-86
2023/04/02 02:50:24;;;;;;;;;;;3.10;99.90;;;;;;6165931;23;20314;-87
2023/04/02 02:52:52;;;;;;;;;;;3.50;99.90;;;;;;6165582;23;19920;-85
2023/04/02 02:55:21;;;;;;;;;;;2.30;99.90;;;;;;6190796;23;19969;-87
2023/04/02 02:57:49;;;;;;;;;;;3.00;99.90;;;;;;6190004;23;19920;-88
2023/04/02 03:00:18;;;;;;;;;;;1.50;99.90;;;;;;6190369;23;19920;-86
2023/04/02 03:02:44;;;;;;;;;;;1.40;99.90;;;;;;6190265;23;20253;-86
2023/04/02 03:05:18;;;;;;;;;;;1.50;99.90;;;;;;6189941;23;19920;-86
2023/04/02 03:07:46;;;;;;;;;;;2.20;99.90;;;;;;6190083;23;19999;-87
2023/04/02 03:10:13;;;;;;;;;;;-1.20;99.90;;;;;;6165099;23;19919;-87
2023/04/02 03:12:42;;;;;;;;;;;3.10;99.90;;;;;;6189798;23;19920;-86
2023/04/02 03:15:11;;;;;;;;;;;1.40;99.90;;;;;;6191062;23;19920;-86
2023/04/02 03:17:42;;;;;;;;;;;1.40;99.90;;;;;;6189815;23;19920;-86
2023/04/02 03:20:30;;;;;;;;;;;1.40;99.90;;;;;;6165510;23;19920;-85
2023/04/02 03:22:59;;;;;;;;;;;1.30;99.90;;;;;;6165714;23;19927;-87
2023/04/02 03:25:29;;;;;;;;;;;3.50;99.90;;;;;;6189805;23;19971;-87
2023/04/02 03:27:58;;;;;;;;;;;1.30;99.90;;;;;;6190022;23;20066;-87
2023/04/02 03:30:23;;;;;;;;;;;1.90;99.90;;;;;;6165224;23;19920;-86
2023/04/02 03:32:51;;;;;;;;;;;1.30;99.90;;;;;;6166168;23;19920;-86
2023/04/02 03:35:20;;;;;;;;;;;1.20;99.90;;;;;;6190519;23;19920;-86
2023/04/02 03:37:49;;;;;;;;;;;1.10;99.90;;;;;;6190432;23;20332;-88
2023/04/02 03:40:15;;;;;;;;;;;1.20;99.90;;;;;;6164937;23;19920;-85
2023/04/02 03:42:47;;;;;;;;;;;4.40;99.90;;;;;;6165184;23;20004;-86
2023/04/02 03:45:23;;;;;;;;;;;2.50;99.90;;;;;;6190281;23;20231;-86
2023/04/02 03:47:59;;;;;;;;;;;1.30;99.90;;;;;;6190768;23;19920;-86
2023/04/02 03:50:37;;;;;;;;;;;1.10;99.90;;;;;;6165743;23;19996;-86
2023/04/02 03:53:03;;;;;;;;;;;1.20;99.90;;;;;;6189933;23;19927;-87
2023/04/02 03:55:34;;;;;;;;;;;4.30;99.90;;;;;;6190796;23;20282;-86
2023/04/02 03:58:10;;;;;;;;;;;-1.40;99.90;;;;;;6189432;23;19920;-86
2023/04/02 04:00:46;;;;;;;;;;;0.10;99.90;;;;;;6189886;23;20365;-86
2023/04/02 04:03:20;;;;;;;;;;;1.20;99.90;;;;;;6215057;23;19950;-85
2023/04/02 04:05:57;;;;;;;;;;;1.00;99.90;;;;;;6165014;23;20042;-86
2023/04/02 04:08:28;;;;;;;;;;;1.20;99.90;;;;;;6189630;23;19959;-86
2023/04/02 04:10:58;;;;;;;;;;;1.20;99.90;;;;;;6165702;23;19920;-86
2023/04/02 04:13:28;;;;;;;;;;;1.10;99.90;;;;;;6164877;23;19922;-87
2023/04/02 04:15:59;;;;;;;;;;;3.00;99.90;;;;;;6190167;23;19920;-85
2023/04/02 04:18:40;;;;;;;;;;;2.40;99.90;;;;;;6190055;23;19970;-87
2023/04/02 04:21:43;;;;;;;;;;;1.10;99.90;;;;;;6189324;23;20330;-86
2023/04/02 04:24:16;;;;;;;;;;;1.10;99.90;;;;;;6119080;23;19996;-85
2023/04/02 04:26:41;;;;;;;;;;;1.00;99.90;;;;;;6189670;23;19927;-85
2023/04/02 04:29:26;;;;;;;;;;;3.30;99.90;;;;;;6189655;23;20346;-86
2023/04/02 04:31:54;;;;;;;;;;;1.10;99.90;;;;;;6164856;23;19920;-85
2023/04/02 04:34:25;;;;;;;;;;;2.30;99.90;;;;;;6189682;23;19927;-86
2023/04/02 04:36:54;;;;;;;;;;;1.00;99.90;;;;;;6190099;23;19924;-86
2023/04/02 04:39:23;;;;;;;;;;;4.00;99.90;;;;;;6164842;23;19966;-87
2023/04/02 04:41:50;;;;;;;;;;;1.80;99.90;;;;;;6164634;23;19920;-86
2023/04/02 04:44:22;;;;;;;;;;;1.70;99.90;;;;;;6189611;23;19920;-86
2023/04/02 04:46:53;;;;;;;;;;;1.10;99.90;;;;;;6189184;23;19920;-86
2023/04/02 04:49:25;;;;;;;;;;;1.00;99.90;;;;;;6189420;23;19974;-86
2023/04/02 04:51:52;;;;;;;;;;;3.40;99.90;;;;;;6189910;23;20354;-85
2023/04/02 04:54:19;;;;;;;;;;;3.20;99.90;;;;;;6189065;23;19920;-86
2023/04/02 04:56:54;;;;;;;;;;;2.70;99.90;;;;;;6189870;23;20324;-85
2023/04/02 04:59:20;;;;;;;;;;;2.50;99.90;;;;;;6139558;23;19931;-85
2023/04/02 05:01:49;;;;;;;;;;;2.40;99.90;;;;;;6165001;23;20323;-85
2023/04/02 05:04:19;;;;;;;;;;;3.70;99.90;;;;;;6164378;23;19920;-86
2023/04/02 05:06:56;;;;;;;;;;;0.90;99.90;;;;;;6165560;23;19962;-84
2023/04/02 05:09:39;;;;;;;;;;;1.60;99.90;;;;;;6164167;23;20318;-86
2023/04/02 05:12:17;;;;;;;;;;;1.00;99.90;;;;;;6190275;23;19931;-87
2023/04/02 05:15:01;;;;;;;;;;;-1.90;99.90;;;;;;6189307;23;19927;-87
2023/04/02 05:17:30;;;;;;;;;;;1.10;99.90;;;;;;6189144;23;19974;-87
2023/04/02 05:19:59;;;;;;;;;;;1.70;99.90;;;;;;6164074;23;19920;-88
2023/04/02 05:22:48;;;;;;;;;;;1.50;99.90;;;;;;6163201;23;19931;-85
2023/04/02 05:25:14;;;;;;;;;;;1.20;99.90;;;;;;6147319;23;19923;-87
2023/04/02 05:27:53;;;;;;;;;;;1.10;99.90;;;;;;6189159;23;19927;-86
2023/04/02 05:30:22;;;;;;;;;;;1.20;99.90;;;;;;6164695;23;19920;-87
2023/04/02 05:32:57;;;;;;;;;;;1.10;99.90;;;;;;6165193;23;19919;-87
2023/04/02 05:35:26;;;;;;;;;;;1.10;99.90;;;;;;6188128;23;19927;-86
2023/04/02 05:37:55;;;;;;;;;;;1.20;99.90;;;;;;6165168;23;19927;-87
2023/04/02 05:40:24;;;;;;;;;;;3.00;99.90;;;;;;6189155;23;19924;-86
2023/04/02 05:42:52;;;;;;;;;;;1.20;99.90;;;;;;6191279;23;19919;-87
2023/04/02 05:45:32;;;;;;;;;;;1.20;99.90;;;;;;6191339;23;19924;-87
2023/04/02 05:48:00;;;;;;;;;;;1.30;99.90;;;;;;6166231;23;19920;-86
2023/04/02 05:50:29;;;;;;;;;;;3.20;99.90;;;;;;6190427;23;19955;-87
2023/04/02 05:52:58;;;;;;;;;;;3.10;99.90;;;;;;6215540;23;19927;-88
2023/04/02 05:55:23;;;;;;;;;;;3.10;99.90;;;;;;6190995;23;20000;-87
2023/04/02 05:57:50;;;;;;;;;;;1.40;99.90;;;;;;6190463;23;19920;-88
2023/04/02 06:00:24;;;;;;;;;;;1.50;99.90;;;;;;6190647;23;19927;-87
2023/04/02 06:02:55;;;;;;;;;;;1.40;99.90;;;;;;6191348;23;19923;-87
2023/04/02 06:05:35;;;;;;;;;;;1.60;99.90;;;;;;6191619;23;19946;-86
2023/04/02 06:08:12;;;;;;;;;;;1.50;99.90;;;;;;6190736;23;19923;-85
2023/04/02 06:10:54;;;;;;;;;;;1.60;99.90;;;;;;6190932;23;19920;-87
2023/04/02 06:13:19;;;;;;;;;;;1.60;99.90;;;;;;6166041;23;19927;-86
2023/04/02 06:15:45;;;;;;;;;;;4.00;99.90;;;;;;6165780;23;19920;-86
2023/04/02 06:18:24;;;;;;;;;;;2.50;99.90;;;;;;6190656;23;19962;-86
2023/04/02 06:20:50;;;;;;;;;;;1.80;99.90;;;;;;6190142;23;19970;-87
2023/04/02 06:23:22;;;;;;;;;;;2.60;99.90;;;;;;6190701;23;19920;-86
2023/04/02 06:25:51;;;;;;;;;;;1.80;99.90;;;;;;6190945;23;20012;-86
2023/04/02 06:28:19;;;;;;;;;;;1.90;99.90;;;;;;6190406;23;19920;-86
2023/04/02 06:30:44;;;;;;;;;;;1.80;99.90;;;;;;6190575;23;19927;-85
2023/04/02 06:33:11;;;;;;;;;;;2.60;99.90;;;;;;6166084;23;19924;-87
2023/04/02 06:35:40;;;;;;;;;;;2.40;99.90;;;;;;6190856;23;19920;-87
2023/04/02 06:38:07;;;;;;;;;;;3.50;99.90;;;;;;6190766;23;20238;-85
2023/04/02 06:40:39;;;;;;;;;;;2.60;99.90;;;;;;6165522;23;19931;-85
2023/04/02 06:43:07;;;;;;;;;;;2.30;99.90;;;;;;6189998;23;19919;-86
2023/04/02 06:45:37;;;;;;;;;;;2.30;99.90;;;;;;6190512;23;19966;-86
2023/04/02 06:48:03;;;;;;;;;;;0.30;99.90;;;;;;6191214;23;20008;-87
2023/04/02 06:50:31;;;;;;;;;;;2.50;99.90;;;;;;6190423;23;19950;-86
2023/04/02 06:52:58;;;;;;;;;;;2.50;99.90;;;;;;6165052;23;19991;-86
2023/04/02 06:55:24;;;;;;;;;;;2.70;99.90;;;;;;6165833;23;20285;-86
2023/04/02 06:57:50;;;;;;;;;;;2.70;99.90;;;;;;6190565;23;19919;-86
2023/04/02 07:00:29;;;;;;;;;;;2.70;99.90;;;;;;6190393;23;19927;-85
2023/04/02 07:02:56;;;;;;;;;;;2.80;99.90;;;;;;6165203;23;19920;-87
2023/04/02 07:05:24;;;;;;;;;;;3.20;99.90;;;;;;6190912;23;19927;-85
2023/04/02 07:07:50;;;;;;;;;;;3.00;99.90;;;;;;6166088;23;20242;-85
2023/04/02 07:10:15;;;;;;;;;;;4.00;99.90;;;;;;6164990;23;19974;-86
2023/04/02 07:12:41;;;;;;;;;;;2.90;99.90;;;;;;6165244;23;19920;-88
2023/04/02 07:15:09;;;;;;;;;;;2.90;99.90;;;;;;6189918;23;19920;-88
2023/04/02 07:17:35;;;;;;;;;;;2.80;99.90;;;;;;6165026;23;19919;-87
2023/04/02 07:20:01;;;;;;;;;;;1.10;99.90;;;;;;6165579;23;20225;-88
2023/04/02 07:22:26;;;;;;;;;;;3.40;99.90;;;;;;6141028;23;20237;-88
2023/04/02 07:24:55;;;;;;;;;;;3.50;99.90;;;;;;6190318;23;19942;-89
2023/04/02 07:27:23;;;;;;;;;;;3.90;99.90;;;;;;6166055;23;19924;-87
2023/04/02 07:29:48;;;;;;;;;;;3.80;99.90;;;;;;6190859;23;19920;-88
2023/04/02 07:32:14;;;;;;;;;;;3.10;99.90;;;;;;6190075;23;19986;-87
2023/04/02 07:34:42;;;;;;;;;;;4.40;99.90;;;;;;6190907;23;19920;-86
2023/04/02 07:37:11;;;;;;;;;;;3.20;99.90;;;;;;6190112;23;19919;-88
2023/04/02 07:39:37;;;;;;;;;;;3.40;99.90;;;;;;6215712;23;19978;-86
2023/04/02 07:42:02;;;;;;;;;;;3.30;99.90;;;;;;6190070;23;20238;-87
2023/04/02 07:44:28;;;;;;;;;;;3.40;99.90;;;;;;6164947;23;19951;-88
2023/04/02 07:46:54;;;;;;;;;;;3.50;99.90;;;;;;6189879;23;19920;-87
2023/04/02 07:49:20;;;;;;;;;;;3.50;99.90;;;;;;6166050;23;19927;-86
2023/04/02 07:51:48;;;;;;;;;;;3.60;99.90;;;;;;6165181;23;20222;-88
2023/04/02 07:54:14;;;;;;;;;;;3.90;99.90;;;;;;6189775;23;19947;-87
2023/04/02 07:56:40;;;;;;;;;;;3.60;99.90;;;;;;6190034;23;19920;-87
2023/04/02 07:59:08;;;;;;;;;;;3.80;99.90;;;;;;6140492;23;20381;-88
2023/04/02 08:01:34;;;;;;;;;;;4.10;99.90;;;;;;6189832;23;19962;-88
2023/04/02 08:04:00;;;;;;;;;;;4.00;99.90;;;;;;6189541;23;19920;-88
2023/04/02 08:06:26;;;;;;;;;;;3.70;99.90;;;;;;6190568;23;19919;-87
2023/04/02 08:08:52;;;;;;;;;;;4.10;99.90;;;;;;6190657;23;20334;-88
2023/04/02 08:11:17;;;;;;;;;;;4.00;99.90;;;;;;6164793;23;19970;-87
2023/04/02 08:13:43;;;;;;;;;;;3.90;99.90;;;;;;6189704;23;19927;-88
2023/04/02 08:16:09;;;;;;;;;;;5.80;99.90;;;;;;6189568;23;19951;-87
2023/04/02 08:18:35;;;;;;;;;;;4.00;99.90;;;;;;6190516;23;19943;-87
2023/04/02 08:21:01;;;;;;;;;;;4.10;99.90;;;;;;6189447;23;20254;-88
2023/04/02 08:23:26;;;;;;;;;;;4.10;99.90;;;;;;6189561;23;19924;-86
2023/04/02 08:25:52;;;;;;;;;;;4.20;99.90;;;;;;6189711;23;19995;-86
2023/04/02 08:28:20;;;;;;;;;;;4.30;99.90;;;;;;6190757;23;19978;-87
2023/04/02 08:30:47;;;;;;;;;;;4.30;99.90;;;;;;6191583;23;19920;-86
2023/04/02 08:33:13;;;;;;;;;;;4.20;99.90;;;;;;6190654;23;19955;-87
2023/04/02 08:35:39;;;;;;;;;;;4.00;99.90;;;;;;6189577;23;19927;-87
2023/04/02 08:38:05;;;;;;;;;;;3.90;99.90;;;;;;6189996;23;20307;-88
2023/04/02 08:40:38;;;;;;;;;;;4.20;99.90;;;;;;6189678;23;19924;-86
2023/04/02 08:43:22;;;;;;;;;;;3.40;99.90;;;;;;6189325;23;19955;-90
2023/04/02 08:46:06;;;;;;;;;;;3.70;99.90;;;;;;6188684;23;19920;-88
2023/04/02 08:48:35;;;;;;;;;;;3.70;99.90;;;;;;6190245;23;19943;-92
2023/04/02 08:51:02;;;;;;;;;;;4.00;99.90;;;;;;6189325;23;20007;-90
2023/04/02 08:53:29;;;;;;;;;;;4.60;99.90;;;;;;6189479;23;19924;-89
2023/04/02 08:56:18;;;;;;;;;;;4.20;99.90;;;;;;6164408;23;19970;-91
2023/04/02 08:58:48;;;;;;;;;;;4.30;99.90;;;;;;6165967;23;19920;-90
2023/04/02 09:01:20;;;;;;;;;;;4.30;99.90;;;;;;6165223;23;19920;-88
2023/04/02 09:03:47;;;;;;;;;;;4.20;99.90;;;;;;6159014;23;19994;-88
2023/04/02 09:06:32;;;;;;;;;;;4.50;99.90;;;;;;6183957;23;19928;-92
2023/04/02 09:08:59;;;;;;;;;;;4.50;99.90;;;;;;6184357;23;19921;-89
2023/04/02 09:11:43;;;;;;;;;;;4.50;99.90;;;;;;6159532;23;19936;-88
2023/04/02 09:14:14;;;;;;;;;;;4.70;99.90;;;;;;6159393;23;20016;-90
2023/04/02 09:16:53;;;;;;;;;;;4.70;99.90;;;;;;6161620;23;20262;-88
2023/04/02 09:19:25;;;;;;;;;;;4.70;99.90;;;;;;6186244;23;19928;-88
2023/04/02 09:21:57;;;;;;;;;;;4.80;99.90;;;;;;6186987;23;19924;-90
2023/04/02 09:24:40;;;;;;;;;;;4.90;99.90;;;;;;6186591;23;20326;-91
2023/04/02 09:27:16;;;;;;;;;;;5.10;99.90;;;;;;6187519;23;19920;-89
2023/04/02 09:29:45;;;;;;;;;;;6.30;99.90;;;;;;6161697;23;19975;-91
2023/04/02 09:32:26;;;;;;;;;;;5.40;99.90;;;;;;6161817;23;19921;-90
2023/04/02 09:35:05;;;;;;;;;;;5.10;99.90;;;;;;6186989;23;19920;-86
2023/04/02 09:37:33;;;;;;;;;;;5.20;99.90;;;;;;6161824;23;19928;-86
2023/04/02 09:40:30;;;;;;;;;;;5.20;99.90;;;;;;6162007;23;19921;-88
2023/04/02 09:43:29;;;;;;;;;;;5.40;99.90;;;;;;6162120;23;19920;-90
2023/04/02 09:45:58;;;;;;;;;;;5.50;99.90;;;;;;6135651;23;19959;-90
2023/04/02 09:48:28;;;;;;;;;;;5.60;99.90;;;;;;6186309;23;20290;-89
2023/04/02 09:51:03;;;;;;;;;;;5.60;99.90;;;;;;6187167;23;19927;-89
2023/04/02 09:53:32;;;;;;;;;;;5.60;99.90;;;;;;6187100;23;19927;-89
2023/04/02 09:56:08;;;;;;;;;;;5.70;99.90;;;;;;6186040;23;19925;-90
2023/04/02 09:58:33;;;;;;;;;;;5.90;99.90;;;;;;6185948;23;19920;-90
2023/04/02 10:00:59;;;;;;;;;;;5.80;99.90;;;;;;6160927;23;20022;-88
2023/04/02 10:03:27;;;;;;;;;;;5.90;99.90;;;;;;6190520;23;19927;-88
2023/04/02 10:06:08;;;;;;;;;;;6.10;99.90;;;;;;6191362;23;20319;-89
2023/04/02 10:08:35;;;;;;;;;;;8.70;99.90;;;;;;6166379;23;19998;-86
2023/04/02 10:11:01;;;;;;;;;;;6.60;99.90;;;;;;6190885;23;19924;-88
2023/04/02 10:13:34;;;;;;;;;;;6.10;99.90;;;;;;6190678;23;20258;-88
2023/04/02 10:16:08;;;;;;;;;;;6.50;99.90;;;;;;6166096;23;20246;-87
2023/04/02 10:18:52;;;;;;;;;;;6.50;99.90;;;;;;6190907;23;20358;-89
2023/04/02 10:21:26;;;;;;;;;;;6.60;99.90;;;;;;6191207;23;20196;-88
2023/04/02 10:23:52;;;;;;;;;;;6.60;99.90;;;;;;6165070;23;20005;-88
2023/04/02 10:26:29;;;;;;;;;;;6.70;99.90;;;;;;6166576;23;19928;-88
2023/04/02 10:29:11;;;;;;;;;;;6.80;99.90;;;;;;6190678;23;19927;-88
2023/04/02 10:31:52;;;;;;;;;;;6.80;99.90;;;;;;6166757;23;19920;-89
2023/04/02 10:34:22;;;;;;;;;;;6.90;99.90;;;;;;6165317;23;19962;-90
2023/04/02 10:36:48;;;;;;;;;;;6.90;99.90;;;;;;6190516;23;19924;-89
2023/04/02 10:39:23;;;;;;;;;;;6.90;99.90;;;;;;6190342;23;19920;-89
2023/04/02 10:41:48;;;;;;;;;;;7.10;99.90;;;;;;6191312;23;19927;-89
2023/04/02 10:44:14;;;;;;;;;;;7.20;99.90;;;;;;6165378;23;19920;-89
2023/04/02 10:46:51;;;;;;;;;;;7.30;99.90;;;;;;6165803;23;20039;-87
2023/04/02 10:49:43;;;;;;;;;;;7.30;99.90;;;;;;6165881;23;19920;-93
2023/04/02 10:52:18;;;;;;;;;;;7.40;99.90;;;;;;6165576;23;19919;-87
2023/04/02 10:54:56;;;;;;;;;;;7.40;99.90;;;;;;6189783;23;19920;-90
2023/04/02 10:57:28;;;;;;;;;;;7.90;99.90;;;;;;6142840;23;19927;-89
2023/04/02 11:00:14;;;;;;;;;;;7.90;99.90;;;;;;6166014;23;19927;-89
2023/04/02 11:03:08;;;;;;;;;;;;;;;;;;;;;
2023/04/02 11:05:50;;;;;;;;;;;7.70;99.90;;;;;;6161078;23;19921;-87
2023/04/02 11:08:26;;;;;;;;;;;7.70;99.90;;;;;;6209628;23;19920;-88
2023/04/02 11:10:57;;;;;;;;;;;7.80;99.90;;;;;;6184576;23;19971;-87
2023/04/02 11:13:27;;;;;;;;;;;7.90;99.90;;;;;;6209864;23;19927;-88
2023/04/02 11:15:52;;;;;;;;;;;10.20;99.90;;;;;;6135284;23;19928;-88
2023/04/02 11:18:23;;;;;;;;;;;8.10;99.90;;;;;;6135391;23;19920;-88
2023/04/02 11:20:48;;;;;;;;;;;7.90;99.90;;;;;;6160635;23;19921;-87
2023/04/02 11:23:18;;;;;;;;;;;8.00;99.90;;;;;;6159950;23;20371;-87
2023/04/02 11:25:44;;;;;;;;;;;8.00;99.90;;;;;;6160041;23;20326;-87
2023/04/02 11:28:13;;;;;;;;;;;6.20;99.90;;;;;;6135360;23;19920;-88
2023/04/02 11:30:41;;;;;;;;;;;8.30;99.90;;;;;;6135213;23;19924;-88
2023/04/02 11:33:24;;;;;;;;;;;8.30;99.90;;;;;;6160982;23;19920;-88
2023/04/02 11:35:55;;;;;;;;;;;8.40;99.90;;;;;;6184008;23;20311;-87
2023/04/02 11:38:24;;;;;;;;;;;8.60;99.90;;;;;;6159737;23;19939;-87
2023/04/02 11:40:57;;;;;;;;;;;9.10;99.90;;;;;;6135397;23;19924;-87
2023/04/02 11:43:31;;;;;;;;;;;8.40;99.90;;;;;;6160769;23;20226;-87
2023/04/02 11:46:23;;;;;;;;;;;8.50;99.90;;;;;;6160848;23;19920;-88
2023/04/02 11:48:49;;;;;;;;;;;8.50;99.90;;;;;;6159855;23;20246;-87
2023/04/02 11:51:24;;;;;;;;;;;8.60;99.90;;;;;;6160826;23;19970;-87
2023/04/02 11:53:51;;;;;;;;;;;8.60;99.90;;;;;;6160568;23;19928;-88
2023/04/02 11:56:31;;;;;;;;;;;8.40;99.90;;;;;;6184983;23;19920;-87
2023/04/02 11:59:16;;;;;;;;;;;8.80;99.90;;;;;;6160758;23;20014;-89
2023/04/02 12:01:57;;;;;;;;;;;8.30;99.90;;;;;;6185474;23;20227;-89
2023/04/02 12:04:51;;;;;;;;;;;8.50;99.90;;;;;;6172685;23;20183;-88
2023/04/02 12:07:33;;;;;;;;;;;9.00;99.90;;;;;;6160966;23;20246;-88
2023/04/02 12:10:01;;;;;;;;;;;8.90;99.90;;;;;;6184980;23;20337;-89
2023/04/02 12:12:32;;;;;;;;;;;8.90;99.90;;;;;;6184524;23;19925;-90
2023/04/02 12:14:59;;;;;;;;;;;8.70;99.90;;;;;;6184645;23;20385;-89
2023/04/02 12:17:33;;;;;;;;;;;8.70;99.90;;;;;;6159744;23;19927;-89
2023/04/02 12:19:59;;;;;;;;;;;8.60;99.90;;;;;;6160103;23;20249;-89
2023/04/02 12:22:49;;;;;;;;;;;9.20;99.90;;;;;;6185622;23;19955;-90
2023/04/02 12:25:20;;;;;;;;;;;8.60;99.90;;;;;;6142202;23;20003;-87
2023/04/02 12:28:01;;;;;;;;;;;8.60;99.90;;;;;;6184340;23;19995;-88
2023/04/02 12:30:30;;;;;;;;;;;8.60;99.90;;;;;;6160431;23;19924;-90
2023/04/02 12:32:56;;;;;;;;;;;9.30;99.90;;;;;;6184994;23;20016;-88
2023/04/02 12:35:27;;;;;;;;;;;8.50;99.90;;;;;;6186746;23;20069;-87
2023/04/02 12:37:52;;;;;;;;;;;8.50;99.90;;;;;;6186183;23;19924;-86
2023/04/02 12:40:18;;;;;;;;;;;8.50;99.90;;;;;;6185226;23;19921;-88
2023/04/02 12:42:44;;;;;;;;;;;8.70;99.90;;;;;;6185126;23;19971;-87
2023/04/02 12:45:20;;;;;;;;;;;8.80;99.90;;;;;;6184477;23;19920;-87
2023/04/02 12:47:46;;;;;;;;;;;9.10;99.90;;;;;;6185187;23;19920;-88
2023/04/02 12:50:13;;;;;;;;;;;8.80;99.90;;;;;;6183950;23;20323;-87
2023/04/02 12:52:45;;;;;;;;;;;9.00;99.90;;;;;;6185312;23;19920;-88
2023/04/02 12:55:18;;;;;;;;;;;9.00;99.90;;;;;;6184016;23;19928;-88
2023/04/02 12:57:48;;;;;;;;;;;8.90;99.90;;;;;;6185113;23;19920;-87
2023/04/02 13:00:20;;;;;;;;;;;8.80;99.90;;;;;;6185160;23;19920;-87
2023/04/02 13:02:50;;;;;;;;;;;8.90;99.90;;;;;;6184354;23;19921;-88
2023/04/02 13:05:41;;;;;;;;;;;9.00;99.90;;;;;;6159988;23;20227;-88
2023/04/02 13:08:17;;;;;;;;;;;9.00;99.90;;;;;;6151660;23;19921;-88
2023/04/02 13:10:43;;;;;;;;;;;8.90;99.90;;;;;;6184021;23;19952;-89
2023/04/02 13:13:13;;;;;;;;;;;9.10;99.90;;;;;;6184188;23;19920;-87
2023/04/02 13:15:40;;;;;;;;;;;8.80;99.90;;;;;;6184510;23;19970;-87
2023/04/02 13:18:33;;;;;;;;;;;8.70;99.90;;;;;;6160054;23;19920;-87
2023/04/02 13:21:03;;;;;;;;;;;8.90;99.90;;;;;;6184501;23;19922;-87
2023/04/02 13:23:28;;;;;;;;;;;8.90;99.90;;;;;;6159689;23;20231;-87
2023/04/02 13:25:57;;;;;;;;;;;8.80;99.90;;;;;;6159663;23;19926;-88
2023/04/02 13:28:22;;;;;;;;;;;8.80;99.90;;;;;;6184657;23;20238;-87
2023/04/02 13:30:48;;;;;;;;;;;9.00;99.90;;;;;;6159815;23;19967;-87
2023/04/02 13:33:19;;;;;;;;;;;9.00;99.90;;;;;;6159393;23;19999;-88
2023/04/02 13:35:45;;;;;;;;;;;9.10;99.90;;;;;;6159197;23;19945;-87
2023/04/02 13:38:11;;;;;;;;;;;9.70;99.90;;;;;;6159464;23;19999;-87
2023/04/02 13:40:36;;;;;;;;;;;9.30;99.90;;;;;;6159059;23;19971;-88
2023/04/02 13:43:03;;;;;;;;;;;9.90;99.90;;;;;;6184497;23;19927;-88
2023/04/02 13:45:31;;;;;;;;;;;9.50;99.80;;;;;;6184226;23;19920;-87
2023/04/02 13:47:59;;;;;;;;;;;9.40;99.90;;;;;;6159490;23;19956;-87
2023/04/02 13:50:28;;;;;;;;;;;9.20;99.90;;;;;;6160226;23;20016;-87
2023/04/02 13:52:56;;;;;;;;;;;9.20;99.90;;;;;;6184346;23;19927;-88
2023/04/02 13:55:24;;;;;;;;;;;9.50;99.90;;;;;;6184495;23;20187;-88
2023/04/02 13:57:50;;;;;;;;;;;9.40;99.90;;;;;;6184273;23;20228;-88
2023/04/02 14:00:16;;;;;;;;;;;9.20;99.90;;;;;;6135687;23;20322;-87
2023/04/02 14:02:45;;;;;;;;;;;9.10;98.40;;;;;;6185379;23;19920;-87
2023/04/02 14:05:17;;;;;;;;;;;9.00;99.70;;;;;;6185821;23;19999;-87
2023/04/02 14:07:59;;;;;;;;;;;9.10;99.80;;;;;;6161394;23;20311;-89
2023/04/02 14:10:30;;;;;;;;;;;9.20;99.90;;;;;;6162091;23;20302;-88
2023/04/02 14:12:56;;;;;;;;;;;9.40;99.90;;;;;;6186273;23;19955;-87
2023/04/02 14:15:40;;;;;;;;;;;9.20;99.90;;;;;;6186246;23;19928;-88
2023/04/02 14:18:09;;;;;;;;;;;9.20;99.90;;;;;;6185848;23;19920;-88
2023/04/02 14:20:45;;;;;;;;;;;9.30;99.90;;;;;;6185708;23;19920;-87
2023/04/02 14:23:17;;;;;;;;;;;9.40;99.60;;;;;;6186605;23;20212;-87
2023/04/02 14:25:43;;;;;;;;;;;9.40;99.90;;;;;;6161641;23;19920;-88
2023/04/02 14:28:08;;;;;;;;;;;9.30;99.00;;;;;;6160887;23;19974;-88
2023/04/02 14:30:55;;;;;;;;;;;9.30;99.10;;;;;;6185690;23;19921;-88
2023/04/02 14:33:32;;;;;;;;;;;9.00;99.90;;;;;;6161249;23;19960;-88
2023/04/02 14:36:15;;;;;;;;;;;8.90;99.90;;;;;;6186134;23;19963;-88
2023/04/02 14:38:50;;;;;;;;;;;8.90;99.90;;;;;;6185629;23;19940;-88
2023/04/02 14:41:15;;;;;;;;;;;8.90;99.90;;;;;;6160438;23;20004;-88
2023/04/02 14:43:45;;;;;;;;;;;9.10;99.70;;;;;;6185856;23;19952;-87
2023/04/02 14:46:11;;;;;;;;;;;8.90;99.90;;;;;;6186760;23;19920;-88
2023/04/02 14:48:43;;;;;;;;;;;7.60;99.90;;;;;;6160708;23;20214;-88
2023/04/02 14:51:23;;;;;;;;;;;8.90;99.90;;;;;;6185864;23;19928;-88
2023/04/02 14:54:00;;;;;;;;;;;8.80;99.30;;;;;;6186351;23;19970;-88
2023/04/02 14:56:29;;;;;;;;;;;7.10;99.40;;;;;;6185594;23;20254;-87